createdAt,value
2018-11-25T00:02:08.366Z,8.97
2018-11-25T00:04:51.872Z,8.13
2018-11-25T00:07:25.526Z,8.33
2018-11-25T00:09:54.919Z,10.03
2018-11-25T00:12:33.936Z,9.43
2018-11-25T00:15:03.845Z,9.17
2018-11-25T00:17:33.799Z,10.65
2018-11-25T00:20:16.577Z,14.33
2018-11-25T00:22:45.939Z,10.10
2018-11-25T00:25:15.700Z,12.43
2018-11-25T00:27:57.493Z,10.75
2018-11-25T00:30:26.888Z,10.80
2018-11-25T00:32:56.232Z,10.87
2018-11-25T00:35:39.483Z,11.40
2018-11-25T00:38:09.556Z,9.50
2018-11-25T00:40:38.885Z,11.83
2018-11-25T00:43:21.340Z,8.90
2018-11-25T00:45:50.662Z,7.63
2018-11-25T00:48:20.070Z,10.87
2018-11-25T00:51:05.699Z,9.67
2018-11-25T00:53:35.031Z,6.57
2018-11-25T00:56:04.451Z,8.47
2018-11-25T00:58:45.624Z,8.57
2018-11-25T01:01:15.142Z,8.23
2018-11-25T01:03:44.575Z,6.50
2018-11-25T01:06:27.246Z,8.30
2018-11-25T01:08:57.235Z,7.37
2018-11-25T01:11:26.550Z,7.37
2018-11-25T01:14:09.377Z,8.00
2018-11-25T01:16:39.313Z,7.60
2018-11-25T01:19:08.752Z,7.75
2018-11-25T01:21:53.198Z,8.45
2018-11-25T01:24:23.105Z,8.33
2018-11-25T01:26:52.527Z,9.78
2018-11-25T01:29:35.411Z,6.28
2018-11-25T01:32:04.825Z,8.78
2018-11-25T01:34:34.321Z,10.95
2018-11-25T01:37:16.649Z,9.60
2018-11-25T01:39:46.047Z,8.43
2018-11-25T01:42:15.408Z,9.03
2018-11-25T01:44:57.579Z,9.48
2018-11-25T01:47:27.007Z,7.47
2018-11-25T01:49:56.414Z,6.85
2018-11-25T01:52:39.338Z,6.43
2018-11-25T01:55:10.501Z,8.63
2018-11-25T01:57:39.899Z,6.73
2018-11-25T02:00:22.049Z,6.63
2018-11-25T02:02:51.751Z,6.17
2018-11-25T02:05:21.130Z,6.00
2018-11-25T02:08:03.371Z,8.15
2018-11-25T02:10:32.814Z,6.23
2018-11-25T02:13:02.185Z,5.97
2018-11-25T02:15:47.559Z,7.00
2018-11-25T02:18:16.923Z,6.37
2018-11-25T02:20:52.418Z,7.50
2018-11-25T02:23:28.680Z,7.00
2018-11-25T02:25:58.123Z,8.00
2018-11-25T02:28:27.834Z,6.22
2018-11-25T02:31:10.122Z,7.33
2018-11-25T02:33:39.452Z,6.63
2018-11-25T02:36:08.837Z,6.10
2018-11-25T02:38:52.260Z,7.43
2018-11-25T02:41:22.119Z,6.92
2018-11-25T02:43:51.530Z,7.47
2018-11-25T02:46:33.354Z,6.12
2018-11-25T02:49:02.783Z,5.92
2018-11-25T02:51:32.127Z,6.70
2018-11-25T02:54:16.647Z,6.90
2018-11-25T02:56:46.567Z,6.33
2018-11-25T02:59:16.018Z,6.30
2018-11-25T03:01:57.312Z,6.83
2018-11-25T03:04:26.869Z,6.53
2018-11-25T03:06:56.240Z,6.70
2018-11-25T03:09:39.317Z,4.65
2018-11-25T03:12:08.661Z,5.10
2018-11-25T03:14:38.035Z,4.72
2018-11-25T03:17:21.299Z,5.28
2018-11-25T03:19:50.696Z,5.70
2018-11-25T03:22:20.086Z,5.70
2018-11-25T03:25:04.082Z,5.97
2018-11-25T03:27:33.415Z,5.23
2018-11-25T03:30:02.556Z,6.20
2018-11-25T03:32:45.298Z,7.43
2018-11-25T03:35:14.848Z,6.65
2018-11-25T03:37:44.214Z,6.67
2018-11-25T03:40:27.059Z,6.13
2018-11-25T03:42:56.962Z,6.80
2018-11-25T03:45:26.300Z,6.67
2018-11-25T03:48:08.655Z,7.65
2018-11-25T03:50:37.976Z,8.88
2018-11-25T03:53:25.677Z,7.15
2018-11-25T03:56:02.982Z,5.97
2018-11-25T03:58:32.381Z,5.73
2018-11-25T04:01:19.378Z,4.17
2018-11-25T04:03:49.478Z,5.28
2018-11-25T04:06:19.402Z,5.83
2018-11-25T04:09:03.258Z,4.15
2018-11-25T04:11:32.702Z,5.58
2018-11-25T04:14:01.972Z,4.83
2018-11-25T04:16:45.703Z,5.62
2018-11-25T04:19:15.150Z,5.97
2018-11-25T04:21:44.526Z,5.93
2018-11-25T04:24:28.738Z,4.50
2018-11-25T04:26:58.122Z,6.55
2018-11-25T04:29:27.538Z,6.72
2018-11-25T04:32:10.104Z,4.97
2018-11-25T04:34:39.428Z,5.17
2018-11-25T04:37:09.756Z,5.12
2018-11-25T04:39:52.102Z,6.27
2018-11-25T04:42:21.488Z,6.37
2018-11-25T04:44:51.562Z,5.67
2018-11-25T04:47:32.819Z,5.67
2018-11-25T04:50:02.194Z,5.53
2018-11-25T04:52:31.567Z,8.03
2018-11-25T04:55:15.840Z,6.12
2018-11-25T04:57:47.359Z,6.80
2018-11-25T05:00:16.731Z,5.47
2018-11-25T05:02:58.138Z,5.90
2018-11-25T05:05:27.554Z,6.80
2018-11-25T05:07:57.255Z,6.47
2018-11-25T05:10:39.977Z,5.22
2018-11-25T05:13:09.395Z,6.50
2018-11-25T05:15:38.874Z,7.20
2018-11-25T05:18:21.274Z,6.73
2018-11-25T05:20:50.690Z,5.00
2018-11-25T05:23:20.093Z,5.67
2018-11-25T05:26:03.238Z,5.03
2018-11-25T05:28:32.585Z,9.17
2018-11-25T05:31:01.956Z,6.97
2018-11-25T05:33:45.319Z,5.97
2018-11-25T05:36:18.973Z,6.23
2018-11-25T05:41:58.083Z,5.23
2018-11-25T05:44:45.165Z,5.58
2018-11-25T05:47:14.536Z,4.97
2018-11-25T05:49:43.875Z,6.70
2018-11-25T05:52:29.031Z,5.90
2018-11-25T05:54:58.423Z,5.17
2018-11-25T05:57:27.758Z,5.57
2018-11-25T06:00:14.792Z,4.37
2018-11-25T06:02:44.286Z,6.87
2018-11-25T06:05:13.687Z,4.47
2018-11-25T06:07:51.866Z,7.08
2018-11-25T06:10:21.370Z,7.97
2018-11-25T06:12:50.733Z,7.17
2018-11-25T06:15:32.463Z,7.97
2018-11-25T06:18:01.863Z,7.00
2018-11-25T06:20:31.271Z,8.68
2018-11-25T06:23:14.922Z,6.40
2018-11-25T06:25:46.330Z,7.23
2018-11-25T06:28:15.694Z,6.60
2018-11-25T06:30:57.351Z,5.50
2018-11-25T06:33:26.726Z,5.72
2018-11-25T06:35:56.113Z,6.40
2018-11-25T06:38:39.256Z,5.20
2018-11-25T06:41:08.600Z,5.90
2018-11-25T06:43:38.033Z,6.17
2018-11-25T06:46:21.915Z,5.03
2018-11-25T06:48:55.043Z,5.15
2018-11-25T06:51:20.663Z,5.57
2018-11-25T06:54:03.926Z,5.28
2018-11-25T06:56:33.313Z,5.03
2018-11-25T06:59:03.260Z,5.00
2018-11-25T07:01:45.317Z,5.83
2018-11-25T07:04:14.698Z,4.80
2018-11-25T07:06:44.096Z,7.60
2018-11-25T07:09:27.252Z,5.58
2018-11-25T07:11:56.660Z,6.03
2018-11-25T07:14:26.073Z,6.37
2018-11-25T07:17:08.902Z,4.62
2018-11-25T07:19:38.271Z,6.55
2018-11-25T07:22:07.682Z,7.60
2018-11-25T07:24:50.656Z,5.37
2018-11-25T07:27:20.150Z,6.70
2018-11-25T07:29:50.034Z,6.40
2018-11-25T07:32:33.503Z,5.58
2018-11-25T07:35:02.857Z,6.47
2018-11-25T07:37:32.230Z,6.27
2018-11-25T07:40:16.516Z,5.87
2018-11-25T07:42:45.892Z,6.22
2018-11-25T07:45:17.692Z,5.70
2018-11-25T07:47:57.854Z,6.80
2018-11-25T07:50:27.272Z,6.53
2018-11-25T07:52:56.918Z,5.67
2018-11-25T07:55:39.398Z,5.60
2018-11-25T07:58:08.819Z,6.93
2018-11-25T08:00:38.410Z,5.50
2018-11-25T08:03:22.403Z,5.28
2018-11-25T08:05:51.886Z,7.33
2018-11-25T08:08:21.330Z,5.30
2018-11-25T08:11:07.422Z,5.53
2018-11-25T08:13:36.770Z,5.10
2018-11-25T08:16:06.748Z,4.65
2018-11-25T08:18:45.938Z,3.75
2018-11-25T08:21:15.297Z,5.65
2018-11-25T08:23:44.395Z,4.67
2018-11-25T08:26:27.561Z,5.37
2018-11-25T08:28:56.921Z,3.62
2018-11-25T08:31:26.866Z,3.67
2018-11-25T08:34:10.021Z,5.28
2018-11-25T08:36:39.370Z,5.03
2018-11-25T08:39:09.258Z,4.72
2018-11-25T08:41:51.761Z,4.28
2018-11-25T08:44:21.145Z,3.80
2018-11-25T08:46:51.055Z,5.00
2018-11-25T08:49:33.962Z,9.90
2018-11-25T08:52:03.314Z,27.80
2018-11-25T08:54:33.298Z,39.15
2018-11-25T08:57:15.877Z,36.35
2018-11-25T08:59:45.279Z,44.60
2018-11-25T09:02:14.624Z,43.17
2018-11-25T09:05:01.574Z,41.88
2018-11-25T09:07:30.990Z,44.17
2018-11-25T09:10:00.654Z,46.50
2018-11-25T09:12:40.507Z,51.37
2018-11-25T09:15:13.649Z,42.93
2018-11-25T09:17:43.145Z,35.77
2018-11-25T09:20:22.167Z,31.97
2018-11-25T09:22:52.558Z,28.97
2018-11-25T09:25:27.253Z,32.67
2018-11-25T09:28:04.743Z,28.10
2018-11-25T09:30:34.326Z,25.37
2018-11-25T09:33:03.834Z,24.63
2018-11-25T09:35:46.010Z,27.00
2018-11-25T09:38:15.415Z,25.87
2018-11-25T09:40:44.865Z,31.20
2018-11-25T09:43:28.195Z,29.05
2018-11-25T09:45:57.614Z,26.83
2018-11-25T09:48:27.075Z,30.43
2018-11-25T09:51:09.606Z,29.45
2018-11-25T09:53:39.099Z,26.47
2018-11-25T09:56:08.601Z,24.83
2018-11-25T09:58:51.179Z,22.83
2018-11-25T10:01:20.563Z,20.77
2018-11-25T10:03:50.082Z,28.33
2018-11-25T10:06:33.401Z,23.23
2018-11-25T10:09:02.924Z,30.93
2018-11-25T10:11:32.623Z,31.05
2018-11-25T10:14:14.766Z,24.60
2018-11-25T10:16:45.726Z,26.57
2018-11-25T10:19:15.136Z,28.27
2018-11-25T10:21:57.450Z,29.87
2018-11-25T10:24:26.539Z,26.47
2018-11-25T10:26:56.016Z,26.07
2018-11-25T10:29:39.499Z,25.80
2018-11-25T10:32:09.615Z,21.35
2018-11-25T10:34:38.976Z,19.67
2018-11-25T10:37:21.891Z,16.80
2018-11-25T10:39:51.298Z,17.97
2018-11-25T10:42:21.336Z,19.55
2018-11-25T10:45:04.471Z,22.60
2018-11-25T10:47:33.627Z,19.50
2018-11-25T10:50:03.662Z,21.40
2018-11-25T10:52:45.647Z,20.93
2018-11-25T10:55:16.315Z,21.07
2018-11-25T10:57:46.625Z,21.00
2018-11-25T11:00:34.902Z,22.55
2018-11-25T11:03:10.978Z,20.15
2018-11-25T11:09:33.782Z,22.13
2018-11-25T11:12:03.191Z,21.42
2018-11-25T11:14:45.375Z,19.95
2018-11-25T11:17:15.334Z,18.73
2018-11-25T11:19:44.886Z,17.73
2018-11-25T11:22:27.232Z,18.27
2018-11-25T11:24:56.666Z,17.52
2018-11-25T11:27:26.071Z,18.57
2018-11-25T11:30:09.015Z,16.23
2018-11-25T11:32:41.091Z,20.90
2018-11-25T11:35:10.864Z,15.78
2018-11-25T11:37:51.762Z,19.55
2018-11-25T11:40:21.172Z,17.20
2018-11-25T11:42:50.592Z,18.80
2018-11-25T11:45:33.478Z,18.05
2018-11-25T11:48:02.882Z,16.90
2018-11-25T11:50:33.006Z,18.67
2018-11-25T11:53:02.404Z,15.93
2018-11-25T11:55:32.289Z,12.85
2018-11-25T11:58:02.364Z,13.55
2018-11-25T12:00:32.205Z,14.75
2018-11-25T12:03:01.659Z,18.93
2018-11-25T12:05:31.030Z,16.40
2018-11-25T12:08:00.390Z,16.43
2018-11-25T12:10:29.830Z,15.97
2018-11-25T12:12:59.290Z,15.67
2018-11-25T12:15:31.387Z,16.40
2018-11-25T12:18:01.587Z,12.10
2018-11-25T12:20:31.813Z,13.93
2018-11-25T12:23:11.708Z,17.10
2018-11-25T12:25:41.108Z,16.63
2018-11-25T12:28:11.068Z,16.87
2018-11-25T12:30:42.813Z,16.27
2018-11-25T12:33:12.413Z,16.90
2018-11-25T12:35:42.442Z,14.63
2018-11-25T12:38:12.443Z,15.90
2018-11-25T12:40:43.040Z,19.20
2018-11-25T12:43:15.905Z,17.48
2018-11-25T12:45:45.880Z,20.23
2018-11-25T12:48:24.099Z,21.57
2018-11-25T12:50:53.590Z,20.43
2018-11-25T12:53:23.894Z,21.02
2018-11-25T12:55:55.030Z,23.25
2018-11-25T12:58:25.018Z,22.87
2018-11-25T13:00:55.781Z,17.40
2018-11-25T13:03:25.264Z,18.77
2018-11-25T13:05:54.654Z,18.57
2018-11-25T13:08:24.715Z,20.32
2018-11-25T13:10:54.250Z,17.30
2018-11-25T13:13:26.599Z,19.60
2018-11-25T13:15:57.566Z,19.07
2018-11-25T13:18:27.274Z,18.10
2018-11-25T13:21:04.442Z,17.43
2018-11-25T13:23:34.318Z,17.53
2018-11-25T13:26:04.955Z,15.88
2018-11-25T13:28:34.700Z,16.70
2018-11-25T13:31:04.468Z,13.68
2018-11-25T13:33:34.269Z,18.40
2018-11-25T13:36:04.979Z,11.77
2018-11-25T13:38:41.490Z,12.45
2018-11-25T13:41:11.175Z,10.73
2018-11-25T13:43:41.687Z,11.12
2018-11-25T13:46:11.756Z,11.00
2018-11-25T13:48:41.436Z,10.32
2018-11-25T13:51:12.270Z,11.50
2018-11-25T13:53:42.222Z,9.60
2018-11-25T13:56:11.794Z,11.15
2018-11-25T13:58:41.290Z,10.93
2018-11-25T14:01:11.199Z,9.40
2018-11-25T14:03:47.556Z,10.43
2018-11-25T14:06:18.277Z,12.40
2018-11-25T14:08:51.793Z,10.03
2018-11-25T14:11:24.071Z,10.40
2018-11-25T14:13:53.644Z,10.57
2018-11-25T14:16:23.406Z,8.87
2018-11-25T14:18:53.491Z,9.85
2018-11-25T14:21:22.943Z,11.10
2018-11-25T14:23:53.065Z,10.10
2018-11-25T14:26:26.122Z,15.03
2018-11-25T14:29:03.722Z,14.35
2018-11-25T14:31:33.159Z,14.67
2018-11-25T14:34:02.533Z,12.77
2018-11-25T14:36:33.846Z,16.27
2018-11-25T14:39:03.902Z,14.90
2018-11-25T14:41:33.051Z,13.33
2018-11-25T14:44:03.249Z,14.63
2018-11-25T14:46:32.638Z,17.10
2018-11-25T14:49:02.073Z,15.28
2018-11-25T14:51:31.508Z,14.20
2018-11-25T14:54:01.503Z,13.25
2018-11-25T14:56:30.923Z,14.68
2018-11-25T14:59:00.909Z,14.65
2018-11-25T15:01:30.798Z,13.95
2018-11-25T15:04:00.260Z,14.27
2018-11-25T15:06:29.888Z,14.03
2018-11-25T15:08:59.342Z,13.67
2018-11-25T15:11:28.522Z,12.43
2018-11-25T15:13:57.946Z,15.17
2018-11-25T15:16:27.451Z,15.55
2018-11-25T15:18:57.491Z,13.85
2018-11-25T15:21:27.003Z,13.60
2018-11-25T15:23:56.398Z,13.30
2018-11-25T15:26:25.910Z,14.87
2018-11-25T15:32:07.329Z,14.70
2018-11-25T15:34:38.441Z,14.47
2018-11-25T15:37:13.849Z,14.40
2018-11-25T15:39:43.237Z,15.30
2018-11-25T15:42:12.863Z,14.73
2018-11-25T15:44:47.461Z,14.97
2018-11-25T15:47:16.926Z,12.83
2018-11-25T15:49:46.935Z,12.45
2018-11-25T15:52:16.424Z,12.23
2018-11-25T15:54:47.402Z,9.63
2018-11-25T15:57:16.809Z,12.13
2018-11-25T15:59:46.198Z,14.75
2018-11-25T16:02:16.113Z,14.38
2018-11-25T16:04:46.529Z,13.30
2018-11-25T16:07:15.925Z,12.40
2018-11-25T16:09:45.913Z,13.68
2018-11-25T16:12:16.289Z,15.13
2018-11-25T16:14:46.749Z,13.80
2018-11-25T16:17:26.820Z,17.97
2018-11-25T16:19:56.272Z,11.75
2018-11-25T16:22:25.715Z,11.28
2018-11-25T16:24:55.998Z,12.28
2018-11-25T16:27:25.416Z,8.97
2018-11-25T16:29:55.064Z,11.48
2018-11-25T16:32:25.189Z,9.10
2018-11-25T16:34:55.144Z,11.57
2018-11-25T16:37:24.517Z,13.08
2018-11-25T16:39:54.126Z,8.78
2018-11-25T16:42:23.508Z,14.33
2018-11-25T16:44:53.059Z,12.05
2018-11-25T16:47:22.539Z,10.35
2018-11-25T16:49:52.151Z,11.33
2018-11-25T16:52:21.676Z,13.68
2018-11-25T16:54:51.151Z,11.18
2018-11-25T16:57:20.586Z,12.90
2018-11-25T16:59:49.979Z,10.53
2018-11-25T17:02:19.366Z,9.18
2018-11-25T17:04:48.887Z,9.27
2018-11-25T17:07:18.375Z,7.10
2018-11-25T17:09:47.896Z,7.72
2018-11-25T17:12:17.442Z,9.37
2018-11-25T17:14:47.001Z,13.45
2018-11-25T17:17:18.279Z,13.28
2018-11-25T17:19:50.917Z,14.15
2018-11-25T17:22:20.389Z,12.35
2018-11-25T17:24:50.308Z,11.50
2018-11-25T17:27:19.788Z,11.90
2018-11-25T17:29:49.186Z,14.13
2018-11-25T17:32:19.835Z,11.25
2018-11-25T17:35:07.001Z,11.97
2018-11-25T17:37:36.439Z,13.88
2018-11-25T17:40:07.219Z,15.15
2018-11-25T17:42:36.621Z,17.25
2018-11-25T17:45:10.428Z,14.03
2018-11-25T17:47:39.962Z,16.90
2018-11-25T17:50:25.415Z,15.58
2018-11-25T17:56:20.183Z,14.33
2018-11-25T17:58:54.128Z,13.87
2018-11-25T18:01:27.874Z,12.68
2018-11-25T18:04:10.419Z,13.38
2018-11-25T18:06:39.455Z,12.80
2018-11-25T18:09:11.446Z,14.28
2018-11-25T18:11:40.845Z,14.23
2018-11-25T18:14:13.419Z,15.97
2018-11-25T18:16:43.439Z,12.15
2018-11-25T18:19:21.181Z,13.25
2018-11-25T18:22:02.470Z,13.32
2018-11-25T18:24:31.967Z,12.47
2018-11-25T18:27:06.547Z,15.23
2018-11-25T18:29:36.527Z,15.05
2018-11-25T18:32:10.515Z,15.43
2018-11-25T18:34:40.019Z,16.13
2018-11-25T18:37:09.153Z,11.97
2018-11-25T18:39:38.649Z,13.27
2018-11-25T18:42:07.753Z,13.77
2018-11-25T18:44:37.747Z,11.57
2018-11-25T18:47:07.917Z,10.05
2018-11-25T18:49:37.365Z,12.37
2018-11-25T18:52:08.953Z,10.73
2018-11-25T18:54:46.665Z,10.68
2018-11-25T18:57:17.087Z,12.78
2018-11-25T18:59:50.604Z,13.23
2018-11-25T19:02:23.500Z,11.70
2018-11-25T19:04:57.948Z,11.05
2018-11-25T19:07:27.884Z,9.35
2018-11-25T19:09:57.347Z,10.88
2018-11-25T19:12:26.770Z,10.35
2018-11-25T19:14:56.828Z,10.72
2018-11-25T19:17:26.212Z,9.50
2018-11-25T19:19:55.658Z,10.70
2018-11-25T19:22:25.047Z,9.08
2018-11-25T19:24:54.467Z,10.30
2018-11-25T19:27:23.993Z,9.53
2018-11-25T19:29:53.501Z,12.65
2018-11-25T19:32:23.021Z,10.00
2018-11-25T19:34:52.425Z,12.00
2018-11-25T19:37:22.565Z,12.15
2018-11-25T19:39:51.983Z,9.95
2018-11-25T19:42:21.421Z,11.30
2018-11-25T19:44:50.830Z,9.37
2018-11-25T19:47:20.983Z,12.40
2018-11-25T19:49:50.373Z,12.87
2018-11-25T19:52:19.858Z,11.20
2018-11-25T19:54:49.918Z,14.23
2018-11-25T19:57:26.059Z,12.27
2018-11-25T20:00:00.850Z,11.78
2018-11-25T20:02:30.278Z,14.98
2018-11-25T20:05:00.215Z,14.33
2018-11-25T20:07:29.667Z,13.53
2018-11-25T20:09:59.197Z,14.25
2018-11-25T20:12:34.551Z,14.50
2018-11-25T20:15:04.910Z,13.78
2018-11-25T20:17:53.742Z,15.98
2018-11-25T20:20:15.508Z,16.05
2018-11-25T20:22:48.015Z,14.23
2018-11-25T20:25:18.445Z,13.32
2018-11-25T20:27:53.061Z,13.05
2018-11-25T20:30:27.905Z,12.07
2018-11-25T20:33:02.589Z,8.20
2018-11-25T20:35:32.260Z,10.08
2018-11-25T20:38:12.325Z,8.05
2018-11-25T20:40:43.462Z,11.70
2018-11-25T20:43:12.890Z,11.15
2018-11-25T20:45:50.296Z,13.05
2018-11-25T20:48:19.748Z,10.58
2018-11-25T20:50:50.350Z,11.95
2018-11-25T20:53:25.175Z,10.90
2018-11-25T20:56:02.764Z,13.18
2018-11-25T20:58:32.772Z,9.53
2018-11-25T21:01:02.231Z,11.83
2018-11-25T21:03:32.055Z,15.25
2018-11-25T21:06:01.616Z,13.13
2018-11-25T21:08:31.032Z,11.53
2018-11-25T21:11:04.760Z,10.83
2018-11-25T21:13:33.879Z,9.90
2018-11-25T21:16:03.467Z,13.60
2018-11-25T21:18:33.062Z,16.70
2018-11-25T21:21:02.697Z,15.10
2018-11-25T21:23:31.757Z,16.97
2018-11-25T21:26:02.331Z,22.85
2018-11-25T21:28:31.824Z,17.85
2018-11-25T21:31:01.435Z,16.67
2018-11-25T21:33:31.490Z,14.40
2018-11-25T21:36:00.939Z,12.82
2018-11-25T21:38:30.329Z,13.85
2018-11-25T21:40:59.748Z,11.97
2018-11-25T21:43:29.199Z,11.05
2018-11-25T21:45:59.314Z,10.85
2018-11-25T21:48:28.725Z,12.47
2018-11-25T21:50:58.123Z,15.30
2018-11-25T21:53:27.569Z,11.43
2018-11-25T21:55:56.929Z,14.13
2018-11-25T21:58:28.811Z,9.58
2018-11-25T22:00:56.806Z,10.40
2018-11-25T22:03:29.049Z,9.43
2018-11-25T22:05:58.493Z,14.87
2018-11-25T22:08:28.671Z,13.28
2018-11-25T22:10:58.088Z,9.53
2018-11-25T22:13:33.106Z,10.72
2018-11-25T22:16:02.594Z,10.60
2018-11-25T22:18:39.543Z,11.53
2018-11-25T22:21:08.969Z,11.83
2018-11-25T22:23:43.156Z,12.23
2018-11-25T22:26:18.236Z,13.10
2018-11-25T22:28:48.561Z,11.77
2018-11-25T22:31:18.531Z,10.48
2018-11-25T22:33:54.346Z,10.65
2018-11-25T22:36:23.794Z,11.75
2018-11-25T22:39:00.182Z,12.33
2018-11-25T22:41:29.848Z,11.50
2018-11-25T22:44:03.052Z,11.68
2018-11-25T22:46:32.491Z,10.20
2018-11-25T22:49:08.461Z,11.00
2018-11-25T22:51:37.849Z,10.50
2018-11-25T22:54:13.179Z,9.03
2018-11-25T22:56:43.107Z,10.08
2018-11-25T22:59:19.395Z,10.58
2018-11-25T23:01:48.855Z,11.33
2018-11-25T23:05:30.178Z,10.18
2018-11-25T23:07:59.659Z,9.13
2018-11-25T23:10:29.593Z,9.63
2018-11-25T23:12:59.049Z,10.15
2018-11-25T23:15:35.261Z,9.33
2018-11-25T23:18:04.760Z,9.05
2018-11-25T23:20:38.778Z,10.35
2018-11-25T23:23:08.193Z,9.83
2018-11-25T23:25:45.699Z,9.45
2018-11-25T23:28:15.053Z,11.53
2018-11-25T23:30:49.154Z,10.58
2018-11-25T23:33:18.587Z,8.10
2018-11-25T23:35:53.899Z,13.08
2018-11-25T23:38:23.293Z,10.37
2018-11-25T23:40:58.901Z,9.00
2018-11-25T23:46:39.227Z,7.77
2018-11-25T23:49:08.579Z,11.83
2018-11-25T23:51:37.997Z,11.10
2018-11-25T23:54:12.395Z,11.88
2018-11-25T23:56:41.871Z,9.88
2018-11-25T23:59:17.178Z,10.30
